Terminal Aerodrome Forecast
Issued by NWS

Home | Current Version | Previous Version | Text Only | Print | Product List | Glossary On
Versions: 1 2 3 4 5 6 7 8 9 10 11 12 13 14
000
FTUS45 KVEF 051120
TAFEED
TAF
KEED 051120Z 0512/0612 26007KT P6SM SCT120
     FM051500 VRB05KT P6SM SCT100 SCT150 BKN250
     FM052000 19010G18KT P6SM FEW100 SCT150 SCT250
     FM060200 23009KT P6SM SCT150 SCT250=

USA.gov is the U.S. government's official web portal to all federal, state and local government web resources and services.